createdAt,value
2023-01-28T00:04:54.709Z,15.52
2023-01-28T00:09:56.384Z,15.25
2023-01-28T00:14:58.055Z,14.85
2023-01-28T00:19:59.850Z,14.10
2023-01-28T00:25:01.554Z,15.65
2023-01-28T00:30:03.489Z,14.65
2023-01-28T00:35:05.476Z,13.35
2023-01-28T00:40:10.274Z,13.02
2023-01-28T00:45:12.002Z,10.40
2023-01-28T00:50:14.352Z,13.30
2023-01-28T00:55:16.303Z,12.95
2023-01-28T01:00:20.371Z,9.30
2023-01-28T01:05:23.859Z,25.38
2023-01-28T01:10:25.668Z,14.50
2023-01-28T01:15:27.437Z,13.40
2023-01-28T01:20:33.468Z,12.48
2023-01-28T01:25:35.211Z,14.30
2023-01-28T01:30:36.971Z,15.82
2023-01-28T01:35:38.708Z,14.68
2023-01-28T01:40:40.580Z,18.13
2023-01-28T01:45:42.557Z,15.82
2023-01-28T01:50:52.587Z,16.27
2023-01-28T01:55:59.068Z,13.90
2023-01-28T02:01:00.719Z,16.55
2023-01-28T02:06:03.419Z,12.88
2023-01-28T02:11:06.879Z,11.35
2023-01-28T02:16:09.250Z,14.38
2023-01-28T02:21:10.851Z,11.82
2023-01-28T02:26:24.626Z,10.82
2023-01-28T02:36:42.212Z,12.40
2023-01-28T02:42:06.838Z,13.68
2023-01-28T02:47:32.308Z,14.20
2023-01-28T02:53:20.765Z,15.10
2023-01-28T02:58:44.990Z,10.80
2023-01-28T03:03:46.611Z,12.38
2023-01-28T03:09:16.813Z,16.08
2023-01-28T03:14:38.226Z,11.15
2023-01-28T03:19:58.962Z,13.63
2023-01-28T03:25:21.223Z,12.30
2023-01-28T03:31:02.310Z,14.10
2023-01-28T03:36:32.201Z,13.45
2023-01-28T03:41:34.323Z,12.73
2023-01-28T03:46:39.448Z,13.52
2023-01-28T03:51:41.903Z,14.43
2023-01-28T03:56:43.711Z,16.38
2023-01-28T04:01:45.479Z,13.18
2023-01-28T04:06:47.320Z,13.50
2023-01-28T04:12:11.602Z,10.57
2023-01-28T04:17:20.453Z,12.27
2023-01-28T04:22:22.269Z,11.13
2023-01-28T04:27:25.451Z,10.43
2023-01-28T04:32:27.316Z,14.90
2023-01-28T04:37:41.648Z,9.93
2023-01-28T04:43:03.570Z,9.77
2023-01-28T04:48:26.111Z,8.60
2023-01-28T04:53:42.819Z,8.00
2023-01-28T04:59:04.772Z,8.02
2023-01-28T05:04:08.564Z,11.32
2023-01-28T05:09:12.686Z,8.35
2023-01-28T05:14:15.522Z,7.57
2023-01-28T05:19:24.495Z,8.13
2023-01-28T05:24:26.216Z,9.55
2023-01-28T05:29:28.355Z,8.82
2023-01-28T05:34:30.097Z,8.43
2023-01-28T05:39:33.129Z,9.75
2023-01-28T05:44:34.953Z,9.82
2023-01-28T05:49:56.855Z,9.05
2023-01-28T05:55:04.515Z,7.97
2023-01-28T06:00:06.868Z,9.93
2023-01-28T06:05:16.195Z,10.43
2023-01-28T06:10:18.413Z,8.50
2023-01-28T06:15:21.167Z,10.48
2023-01-28T06:20:34.455Z,9.52
2023-01-28T06:25:36.554Z,11.23
2023-01-28T06:30:43.819Z,8.68
2023-01-28T06:35:45.860Z,9.23
2023-01-28T06:40:52.233Z,7.95
2023-01-28T06:46:01.410Z,6.75
2023-01-28T06:51:03.070Z,6.85
2023-01-28T06:56:05.154Z,8.23
2023-01-28T07:01:09.666Z,6.30
2023-01-28T07:06:11.769Z,8.70
2023-01-28T07:11:13.395Z,5.82
2023-01-28T07:16:15.139Z,5.57
2023-01-28T07:21:17.177Z,9.57
2023-01-28T07:26:20.083Z,5.78
2023-01-28T07:31:21.860Z,9.50
2023-01-28T07:36:23.570Z,4.65
2023-01-28T07:41:25.170Z,6.25
2023-01-28T07:46:27.311Z,6.70
2023-01-28T07:51:28.937Z,6.18
2023-01-28T07:56:31.371Z,5.88
2023-01-28T08:01:33.115Z,5.00
2023-01-28T08:06:37.877Z,6.15
2023-01-28T08:11:39.875Z,5.28
2023-01-28T08:16:41.803Z,3.47
2023-01-28T08:21:43.485Z,6.10
2023-01-28T08:26:48.391Z,4.97
2023-01-28T08:31:50.218Z,7.78
2023-01-28T08:36:51.899Z,5.97
2023-01-28T08:41:53.513Z,4.88
2023-01-28T08:46:55.407Z,5.38
2023-01-28T08:51:57.066Z,8.43
2023-01-28T08:56:58.700Z,4.47
2023-01-28T09:02:00.359Z,6.82
2023-01-28T09:07:02.097Z,6.70
2023-01-28T09:12:04.033Z,5.40
2023-01-28T09:17:05.708Z,6.78
2023-01-28T09:22:07.354Z,4.30
2023-01-28T09:27:09.104Z,4.75
2023-01-28T09:32:10.754Z,4.50
2023-01-28T09:37:12.452Z,5.47
2023-01-28T09:42:19.808Z,3.03
2023-01-28T09:47:28.417Z,5.65
2023-01-28T09:52:35.044Z,6.32
2023-01-28T09:57:51.769Z,4.38
2023-01-28T10:03:08.247Z,4.15
2023-01-28T10:08:47.497Z,4.47
2023-01-28T10:14:01.059Z,7.03
2023-01-28T10:19:11.229Z,3.67
2023-01-28T10:24:34.052Z,4.18
2023-01-28T10:29:36.700Z,3.95
2023-01-28T10:34:38.447Z,4.47
2023-01-28T10:39:40.272Z,4.78
2023-01-28T10:44:43.221Z,12.27
2023-01-28T10:49:48.349Z,6.93
2023-01-28T10:55:03.136Z,6.13
2023-01-28T11:00:20.215Z,8.18
2023-01-28T11:05:27.445Z,6.30
2023-01-28T11:10:32.280Z,3.97
2023-01-28T11:15:34.015Z,4.68
2023-01-28T11:20:38.789Z,4.85
2023-01-28T11:25:40.490Z,6.20
2023-01-28T11:30:42.689Z,4.28
2023-01-28T11:35:57.116Z,4.03
2023-01-28T11:41:01.251Z,2.83
2023-01-28T11:46:26.041Z,4.07
2023-01-28T11:51:54.489Z,4.43
2023-01-28T11:57:24.211Z,4.03
2023-01-28T12:02:49.311Z,5.68
2023-01-28T12:07:55.617Z,4.40
2023-01-28T12:13:25.223Z,4.78
2023-01-28T12:18:40.156Z,4.57
2023-01-28T12:23:59.197Z,4.70
2023-01-28T12:29:05.740Z,2.85
2023-01-28T12:34:16.497Z,5.57
2023-01-28T12:39:59.392Z,7.30
2023-01-28T12:45:17.827Z,4.30
2023-01-28T12:50:32.425Z,4.93
2023-01-28T12:55:41.210Z,4.45
2023-01-28T13:00:48.366Z,4.13
2023-01-28T13:05:51.776Z,4.10
2023-01-28T13:10:58.620Z,6.13
2023-01-28T13:16:01.331Z,4.50
2023-01-28T13:21:03.867Z,5.00
2023-01-28T13:26:19.057Z,4.32
2023-01-28T13:31:24.316Z,5.85
2023-01-28T13:36:31.428Z,5.28
2023-01-28T13:41:42.369Z,5.53
2023-01-28T13:46:44.080Z,6.45
2023-01-28T13:51:56.930Z,5.22
2023-01-28T13:57:01.621Z,5.30
2023-01-28T14:02:08.429Z,4.20
2023-01-28T14:07:45.008Z,6.70
2023-01-28T14:13:04.920Z,4.57
2023-01-28T14:23:22.262Z,5.63
2023-01-28T14:28:49.065Z,4.78
2023-01-28T14:33:50.782Z,5.43
2023-01-28T14:38:52.578Z,5.32
2023-01-28T14:43:57.736Z,4.70
2023-01-28T14:49:14.414Z,7.10
2023-01-28T14:54:34.870Z,5.10
2023-01-28T14:59:48.377Z,7.50
2023-01-28T15:04:51.051Z,5.15
2023-01-28T15:10:08.072Z,4.18
2023-01-28T15:15:22.998Z,3.42
2023-01-28T15:20:25.205Z,4.00
2023-01-28T15:25:28.911Z,3.95
2023-01-28T15:30:32.676Z,4.50
2023-01-28T15:35:36.109Z,4.18
2023-01-28T15:40:46.647Z,3.13
2023-01-28T15:45:49.620Z,3.40
2023-01-28T15:51:18.819Z,3.28
2023-01-28T15:56:26.589Z,4.13
2023-01-28T16:01:28.251Z,5.03
2023-01-28T16:06:36.178Z,3.00
2023-01-28T16:11:44.604Z,2.03
2023-01-28T16:16:47.490Z,4.18
2023-01-28T16:21:49.129Z,4.22
2023-01-28T16:27:02.774Z,2.72
2023-01-28T16:32:04.656Z,4.22
2023-01-28T16:37:09.280Z,7.65
2023-01-28T16:42:10.915Z,4.82
2023-01-28T16:47:12.521Z,5.13
2023-01-28T16:52:14.322Z,3.20
2023-01-28T16:57:18.467Z,4.90
2023-01-28T17:02:20.181Z,3.80
2023-01-28T17:07:21.927Z,3.95
2023-01-28T17:12:23.549Z,4.00
2023-01-28T17:17:25.853Z,3.15
2023-01-28T17:22:27.492Z,3.35
2023-01-28T17:27:29.248Z,3.72
2023-01-28T17:32:30.912Z,3.35
2023-01-28T17:37:32.541Z,4.93
2023-01-28T17:42:34.253Z,5.40
2023-01-28T17:47:35.869Z,5.07
2023-01-28T17:52:37.706Z,4.22
2023-01-28T17:57:39.360Z,4.68
2023-01-28T18:02:40.992Z,4.65
2023-01-28T18:07:44.016Z,6.63
2023-01-28T18:12:45.632Z,6.63
2023-01-28T18:17:47.310Z,4.68
2023-01-28T18:22:49.166Z,4.97
2023-01-28T18:27:52.190Z,6.93
2023-01-28T18:32:53.808Z,6.18
2023-01-28T18:37:55.517Z,7.63
2023-01-28T18:42:57.130Z,8.05
2023-01-28T18:47:58.726Z,7.28
2023-01-28T18:53:00.355Z,7.32
2023-01-28T18:58:02.020Z,8.70
2023-01-28T19:03:03.862Z,10.68
2023-01-28T19:08:07.410Z,8.30
2023-01-28T19:13:10.311Z,9.13
2023-01-28T19:18:12.130Z,11.05
2023-01-28T19:23:14.284Z,9.40
2023-01-28T19:28:16.007Z,14.00
2023-01-28T19:33:17.692Z,10.43
2023-01-28T19:38:19.360Z,9.85
2023-01-28T19:43:22.242Z,11.05
2023-01-28T19:48:24.567Z,10.55
2023-01-28T19:53:26.180Z,14.98
2023-01-28T19:58:27.767Z,12.73
2023-01-28T20:03:32.325Z,10.30
2023-01-28T20:08:34.352Z,9.18
2023-01-28T20:13:37.519Z,7.97
2023-01-28T20:18:39.251Z,10.13
2023-01-28T20:23:41.379Z,13.35
2023-01-28T20:28:43.128Z,14.23
2023-01-28T20:33:44.827Z,11.88
2023-01-28T20:38:47.524Z,9.20
2023-01-28T20:43:50.733Z,12.48
2023-01-28T20:48:53.449Z,9.93
2023-01-28T20:53:55.603Z,10.60
2023-01-28T20:59:00.174Z,13.98
2023-01-28T21:04:02.265Z,16.45
2023-01-28T21:09:05.250Z,11.75
2023-01-28T21:14:06.907Z,15.80
2023-01-28T21:19:08.992Z,14.52
2023-01-28T21:24:13.542Z,15.18
2023-01-28T21:29:15.247Z,13.77
2023-01-28T21:34:17.086Z,15.65
2023-01-28T21:39:18.677Z,18.65
2023-01-28T21:44:20.457Z,14.35
2023-01-28T21:49:22.041Z,12.93
2023-01-28T21:54:23.782Z,12.38
2023-01-28T21:59:28.199Z,16.60
2023-01-28T22:04:37.654Z,12.57
2023-01-28T22:09:39.781Z,12.75
2023-01-28T22:14:42.375Z,14.18
2023-01-28T22:19:47.941Z,12.80
2023-01-28T22:24:49.566Z,13.82
2023-01-28T22:29:51.862Z,12.48
2023-01-28T22:34:53.483Z,12.90
2023-01-28T22:39:56.230Z,14.13
2023-01-28T22:44:58.091Z,12.73
2023-01-28T22:49:59.739Z,10.07
2023-01-28T22:55:01.459Z,10.02
2023-01-28T23:00:07.957Z,11.23
2023-01-28T23:05:10.299Z,12.05
2023-01-28T23:10:12.173Z,10.35
2023-01-28T23:15:32.275Z,11.63
2023-01-28T23:20:52.295Z,12.13
2023-01-28T23:25:53.931Z,11.52
2023-01-28T23:30:55.635Z,10.88
2023-01-28T23:35:57.318Z,10.88
2023-01-28T23:40:58.993Z,8.48
2023-01-28T23:46:01.075Z,8.48
2023-01-28T23:51:02.822Z,9.07
2023-01-28T23:56:07.937Z,10.30
